Flight Track Log - Related Links

Times and Time Zones

All times are in EDT time to prevent confusion due to time zone crossing. See the QTR38 flight status page for this flight to view local times or setup timezone preferences in your user account.

Time Position Orientation Groundspeed Altitude Reporting Facility
EDT Latitude Longitude Course Direction KTS MPH feet Rate Location/Type
Thu 04:23:23 PM 45.6590 8.7300 356° North 176 203 1,900  Level FlightAware ADS-B
Thu 04:23:48 PM 45.6810 8.7300 360° North 193 222 2,400 1,200 Climbing FlightAware ADS-B
Thu 04:24:18 PM 45.7090 8.7300 360° North 225 259 3,000 1,029 Climbing FlightAware ADS-B
Thu 04:24:23 PM 45.7120 8.7300 360° North 230 265 3,000 1,400 Level FlightAware ADS-B
Thu 04:24:48 PM 45.7410 8.7480 23° Northeast 262 302 3,700 1,886 Climbing FlightAware ADS-B
Thu 04:24:58 PM 45.7470 8.7620 58° Northeast 264 304 4,100 2,880 Climbing FlightAware ADS-B
Thu 04:25:13 PM 45.7510 8.7870 77° East 267 307 4,900 3,000 Climbing FlightAware ADS-B
Thu 04:25:18 PM 45.7510 8.7950 90° East 269 310 5,100 2,800 Climbing FlightAware ADS-B
Thu 04:25:43 PM 45.7400 8.8350 111° Southeast 271 312 6,300 3,120 Climbing FlightAware ADS-B
Thu 04:26:08 PM 45.7200 8.8760 125° Southeast 275 316 7,700 2,700 Climbing FlightAware ADS-B
Thu 04:26:23 PM 45.7100 8.8940 129° Southeast 284 327 8,100 2,133 Climbing FlightAware ADS-B
Thu 04:26:53 PM 45.6880 8.9380 126° Southeast 293 337 9,300 2,314 Climbing FlightAware ADS-B
Thu 04:27:33 PM 45.6530 9.0070 126° Southeast 316 364 10,800 1,725 Climbing FlightAware ADS-B
Thu 04:28:13 PM 45.6120 9.0750 131° Southeast 351 404 11,600 1,624 Climbing FlightAware ADS-B
Thu 04:28:58 PM 45.5650 9.1480 133° Southeast 365 420 13,100 2,047 Climbing FlightAware ADS-B
Thu 04:29:38 PM 45.5190 9.2210 132° Southeast 375 432 14,500 2,100 Climbing FlightAware ADS-B
Thu 04:30:18 PM 45.4720 9.2950 132° Southeast 381 438 15,900 1,835 Climbing FlightAware ADS-B
Thu 04:31:03 PM 45.4170 9.3800 133° Southeast 398 458 17,100 1,412 Climbing FlightAware ADS-B
Thu 04:31:43 PM 45.3660 9.4600 132° Southeast 418 481 17,900 1,412 Climbing FlightAware ADS-B
Thu 04:32:28 PM 45.3040 9.5560 133° Southeast 429 494 19,100 1,341 Climbing FlightAware ADS-B
Thu 04:33:08 PM 45.2510 9.6390 132° Southeast 445 512 19,800 1,271 Climbing FlightAware ADS-B
Thu 04:33:53 PM 45.1880 9.7360 133° Southeast 451 519 20,900 2,400 Climbing FlightAware ADS-B
Thu 04:34:33 PM 45.1310 9.8230 133° Southeast 423 487 23,200 1,152 Climbing FlightAware ADS-B
Thu 04:37:00 PM 45.0470 10.2238 106° East  Level Estimated
Thu 04:38:00 PM 45.0123 10.3870 107° East  Level Estimated
Thu 04:39:00 PM 44.9773 10.5501 107° East  Level Estimated
Thu 04:40:00 PM 44.9422 10.7129 107° East  Level Estimated
Thu 04:41:00 PM 44.9068 10.8756 107° East  Level Estimated
Thu 04:42:00 PM 44.8712 11.0380 107° East  Level Estimated
Thu 04:43:00 PM 44.8353 11.2003 107° East  Level Estimated
Thu 04:44:00 PM 44.7992 11.3624 107° East  Level Estimated
Thu 04:44:23 PM 44.2510 11.0990 107° East 470 541 33,000  Level FlightAware ADS-B
Thu 04:45:03 PM 44.1910 11.1830 135° Southeast 475 547 33,000  Level FlightAware ADS-B
Thu 04:45:43 PM 44.1280 11.2700 135° Southeast 478 550 33,000  Level FlightAware ADS-B
Thu 04:46:28 PM 44.0550 11.3710 135° Southeast 478 550 33,000  Level FlightAware ADS-B
Thu 04:47:08 PM 43.9930 11.4560 135° Southeast 478 550 33,000  Level FlightAware ADS-B
Thu 04:47:48 PM 43.9330 11.5400 135° Southeast 481 554 33,000  Level FlightAware ADS-B
Thu 04:48:33 PM 43.8650 11.6440 132° Southeast 482 555 33,000  Level FlightAware ADS-B
Thu 04:49:08 PM 43.8180 11.7150 133° Southeast 480 552 33,000  Level FlightAware ADS-B
Thu 04:49:53 PM 43.7470 11.8250 132° Southeast 480 552 33,000  Level FlightAware ADS-B
Thu 04:50:38 PM 43.6770 11.9300 133° Southeast 480 552 33,000  Level FlightAware ADS-B
Thu 04:51:18 PM 43.6170 12.0210 132° Southeast 480 552 33,000  Level FlightAware ADS-B
Thu 04:52:03 PM 43.5520 12.1200 132° Southeast 480 552 33,000  Level FlightAware ADS-B
Thu 04:52:43 PM 43.4910 12.2110 133° Southeast 480 552 33,000  Level FlightAware ADS-B
Thu 04:53:23 PM 43.4310 12.3010 133° Southeast 481 554 33,000  Level FlightAware ADS-B
Thu 04:54:08 PM 43.3620 12.4050 132° Southeast 481 554 33,000  Level FlightAware ADS-B
Thu 04:54:48 PM 43.3050 12.4900 133° Southeast 481 554 33,000  Level FlightAware ADS-B
Thu 04:55:33 PM 43.2350 12.5940 133° Southeast 481 554 33,000  Level FlightAware ADS-B
Thu 04:56:13 PM 43.1760 12.6810 133° Southeast 481 554 33,000  Level FlightAware ADS-B
Thu 04:56:53 PM 43.1140 12.7720 133° Southeast 481 554 33,000  Level FlightAware ADS-B
Thu 04:57:38 PM 43.0460 12.8720 133° Southeast 481 554 33,000  Level FlightAware ADS-B
Thu 04:58:18 PM 42.9860 12.9610 133° Southeast 481 554 33,000  Level FlightAware ADS-B
Thu 04:59:03 PM 42.9180 13.0610 133° Southeast 480 552 33,000  Level FlightAware ADS-B
Thu 04:59:43 PM 42.8670 13.1520 127° Southeast 474 545 33,000  Level FlightAware ADS-B
Thu 05:00:28 PM 42.8230 13.2510 121° Southeast 472 543 33,000  Level FlightAware ADS-B
Thu 05:00:58 PM 42.7880 13.3230 124° Southeast 477 549 33,000  Level FlightAware ADS-B
Thu 05:01:58 PM 42.7040 13.4720 127° Southeast 476 548 33,000  Level FlightAware ADS-B
Thu 05:02:43 PM 42.6460 13.5750 127° Southeast 476 548 33,000  Level FlightAware ADS-B
Thu 05:03:28 PM 42.5920 13.6710 127° Southeast 477 549 33,000  Level FlightAware ADS-B
Thu 05:04:08 PM 42.5290 13.7820 128° Southeast 477 549 33,000  Level FlightAware ADS-B
Thu 05:04:53 PM 42.4700 13.8860 128° Southeast 479 551 33,000  Level FlightAware ADS-B
Thu 05:05:33 PM 42.4210 13.9710 128° Southeast 481 554 33,000  Level FlightAware ADS-B
Thu 05:06:18 PM 42.3450 14.1050 127° Southeast 484 557 33,000  Level FlightAware ADS-B
Thu 05:06:58 PM 42.2890 14.2010 128° Southeast 484 557 33,000  Level FlightAware ADS-B
Thu 05:07:38 PM 42.2360 14.2940 128° Southeast 484 557 33,000  Level FlightAware ADS-B
Thu 05:08:23 PM 42.1710 14.4050 128° Southeast 483 556 33,000  Level FlightAware ADS-B
Thu 05:09:03 PM 42.1160 14.5000 128° Southeast 482 555 33,000  Level FlightAware ADS-B
Thu 05:09:48 PM 42.0560 14.6030 128° Southeast 481 554 33,000  Level FlightAware ADS-B
Thu 05:10:28 PM 42.0020 14.6950 128° Southeast 481 554 33,000  Level FlightAware ADS-B
Thu 05:11:08 PM 41.9460 14.7910 128° Southeast 479 551 33,000  Level FlightAware ADS-B
Thu 05:11:53 PM 41.8840 14.8970 128° Southeast 480 552 33,000  Level FlightAware ADS-B
Thu 05:12:33 PM 41.8300 14.9880 129° Southeast 480 552 33,000  Level FlightAware ADS-B
Thu 05:13:18 PM 41.7670 15.0930 129° Southeast 481 554 33,000  Level FlightAware ADS-B
Thu 05:13:58 PM 41.7120 15.1870 128° Southeast 478 550 33,000  Level FlightAware ADS-B
Thu 05:14:38 PM 41.6580 15.2770 129° Southeast 478 550 33,000  Level FlightAware ADS-B
Thu 05:15:23 PM 41.5930 15.3860 129° Southeast 479 551 33,000  Level FlightAware ADS-B
Thu 05:16:08 PM 41.5330 15.4860 129° Southeast 478 550 33,000  Level FlightAware ADS-B
Thu 05:16:48 PM 41.4770 15.5790 129° Southeast 477 549 33,000  Level FlightAware ADS-B
Thu 05:17:28 PM 41.4230 15.6680 129° Southeast 475 547 33,000  Level FlightAware ADS-B
Thu 05:18:13 PM 41.3590 15.7750 129° Southeast 473 544 33,000  Level FlightAware ADS-B
Thu 05:18:53 PM 41.3040 15.8650 129° Southeast 474 545 33,000  Level FlightAware ADS-B
Thu 05:19:38 PM 41.2440 15.9630 129° Southeast 476 548 33,000  Level FlightAware ADS-B
Thu 05:20:18 PM 41.1880 16.0540 129° Southeast 477 549 33,000  Level FlightAware ADS-B
Thu 05:20:58 PM 41.1320 16.1460 129° Southeast 479 551 33,000  Level FlightAware ADS-B
Thu 05:21:43 PM 41.0680 16.2500 129° Southeast 479 551 33,000  Level FlightAware ADS-B
Thu 05:22:23 PM 41.0120 16.3410 129° Southeast 481 554 33,000  Level FlightAware ADS-B
Thu 05:23:08 PM 40.9480 16.4430 130° Southeast 483 556 33,000  Level FlightAware ADS-B
Thu 05:23:48 PM 40.8930 16.5320 129° Southeast 485 558 33,000  Level FlightAware ADS-B
Thu 05:24:28 PM 40.8350 16.6250 129° Southeast 485 558 33,000  Level FlightAware ADS-B
Thu 05:25:13 PM 40.7700 16.7290 130° Southeast 487 560 33,000  Level FlightAware ADS-B
Thu 05:25:53 PM 40.7120 16.8210 130° Southeast 487 560 33,000  Level FlightAware ADS-B
Thu 05:26:38 PM 40.6480 16.9230 130° Southeast 484 557 33,000  Level FlightAware ADS-B
Thu 05:27:18 PM 40.5930 17.0100 130° Southeast 482 555 33,000  Level FlightAware ADS-B
Thu 05:27:58 PM 40.5350 17.1020 130° Southeast 482 555 33,000  Level FlightAware ADS-B
Thu 05:28:43 PM 40.4690 17.2050 130° Southeast 483 556 33,000  Level FlightAware ADS-B
Thu 05:29:23 PM 40.4110 17.2960 130° Southeast 484 557 33,000  Level FlightAware ADS-B
Thu 05:30:08 PM 40.3490 17.3930 130° Southeast 483 556 33,000  Level FlightAware ADS-B
Thu 05:30:48 PM 40.2910 17.4830 130° Southeast 483 556 33,000  Level FlightAware ADS-B
Thu 05:31:28 PM 40.2340 17.5730 130° Southeast 483 556 33,000  Level FlightAware ADS-B
Thu 05:32:13 PM 40.1680 17.6750 130° Southeast 480 552 33,000  Level FlightAware ADS-B
Thu 05:32:53 PM 40.1100 17.7640 130° Southeast 480 552 33,000  Level FlightAware ADS-B
Thu 05:33:33 PM 40.0530 17.8520 130° Southeast 478 550 33,000  Level FlightAware ADS-B
Thu 05:34:18 PM 39.9910 17.9480 130° Southeast 477 549 33,000  Level FlightAware ADS-B
Thu 05:34:58 PM 39.9340 18.0350 130° Southeast 474 545 33,000  Level FlightAware ADS-B
Thu 05:35:43 PM 39.8720 18.1300 130° Southeast 471 542 33,000  Level FlightAware ADS-B
Thu 05:36:18 PM 39.8460 18.1700 130° Southeast 471 542 33,000  Level FlightAware ADS-B
Thu 05:36:58 PM 39.7960 18.2450 131° Southeast 468 539 33,000 200 Level FlightAware ADS-B
Thu 05:37:48 PM 39.7230 18.3490 132° Southeast 476 548 33,300 533 Climbing FlightAware ADS-B
Thu 05:38:28 PM 39.6560 18.4280 138° Southeast 482 555 33,800 900 Climbing FlightAware ADS-B
Thu 05:39:08 PM 39.5840 18.5130 138° Southeast 483 556 34,500 900 Climbing FlightAware ADS-B
Thu 05:39:48 PM 39.5250 18.5820 138° Southeast 470 541 35,000 300 Climbing FlightAware ADS-B
Thu 05:40:48 PM 39.4300 18.6960 137° Southeast 467 537 35,000  Level FlightAware ADS-B
Thu 05:41:28 PM 39.3760 18.7600 137° Southeast 467 537 35,000  Level FlightAware ADS-B
Thu 05:42:08 PM 39.3220 18.8250 137° Southeast 467 537 35,000 60 Level FlightAware ADS-B
Thu 05:43:08 PM 39.1770 18.9910 138° Southeast 480 552 35,100 60 Climbing FlightAware ADS-B
Thu 05:43:48 PM 39.1220 19.0570 137° Southeast 480 552 35,100  Level FlightAware ADS-B
Thu 05:44:23 PM 39.0950 19.0840 142° Southeast 480 552 35,100 -60 Level FlightAware ADS-B
Thu 05:45:28 PM 38.9850 19.2100 138° Southeast 480 552 35,000 -55 Descending FlightAware ADS-B
Thu 05:46:13 PM 38.8930 19.3150 138° Southeast 481 554 35,000  Level FlightAware ADS-B
Thu 05:47:08 PM 38.7690 19.4580 138° Southeast 475 547 35,000  Level FlightAware ADS-B
Thu 05:47:48 PM 38.7020 19.5340 138° Southeast 476 548 35,000  Level FlightAware ADS-B
Thu 05:48:43 PM 38.6150 19.6350 138° Southeast 477 549 35,000  Level FlightAware ADS-B
Thu 05:49:28 PM 38.5340 19.7240 139° Southeast 481 554 35,000  Level FlightAware ADS-B
Thu 05:50:08 PM 38.4680 19.7980 139° Southeast 481 554 35,000  Level FlightAware ADS-B
Thu 05:50:53 PM 38.4360 19.8340 139° Southeast 487 560 35,000  Level FlightAware ADS-B
Thu 05:51:33 PM 38.3570 19.9230 139° Southeast 488 562 35,000  Level FlightAware ADS-B
Thu 05:52:13 PM 38.2960 19.9910 139° Southeast 490 564 35,000  Level FlightAware ADS-B
Thu 05:52:58 PM 38.1730 20.1290 139° Southeast 490 564 35,000  Level FlightAware ADS-B
Thu 05:53:38 PM 38.1070 20.2030 139° Southeast 489 563 35,000 75 Level FlightAware ADS-B
Thu 05:54:18 PM 38.0400 20.2770 139° Southeast 486 559 35,100  Climbing FlightAware ADS-B
Thu 05:55:03 PM 37.9680 20.3570 139° Southeast 477 549 35,000 -67 Descending FlightAware ADS-B
Thu 05:55:48 PM 37.8870 20.4460 139° Southeast 475 547 35,000  Level FlightAware ADS-B
Thu 05:56:28 PM 37.8200 20.5190 139° Southeast 480 552 35,000  Level FlightAware ADS-B
Thu 05:57:08 PM 37.7530 20.5940 138° Southeast 479 551 35,000  Level FlightAware ADS-B
Thu 05:57:48 PM 37.6900 20.6620 139° Southeast 479 551 35,000  Level FlightAware ADS-B
Thu 05:58:33 PM 37.6090 20.7510 139° Southeast 479 551 35,000  Level FlightAware ADS-B
Thu 05:59:18 PM 37.5370 20.8290 139° Southeast 479 551 35,000  Level FlightAware ADS-B
Thu 06:00:08 PM 37.4550 20.9190 139° Southeast 480 552 35,000  Level FlightAware ADS-B
Thu 06:01:08 PM 37.3500 21.0320 139° Southeast 484 557 35,000  Level FlightAware ADS-B
Thu 06:01:58 PM 37.2690 21.1200 139° Southeast 487 560 35,000  Level FlightAware ADS-B
Thu 06:02:43 PM 37.1860 21.2080 140° Southeast 490 564 35,000  Level FlightAware ADS-B
Thu 06:03:28 PM 37.1090 21.2910 139° Southeast 492 566 35,000  Level FlightAware ADS-B
Thu 06:04:03 PM 37.0550 21.3500 139° Southeast 492 566 35,000  Level FlightAware ADS-B
Thu 06:04:53 PM 36.9820 21.4290 139° Southeast 492 566 35,000  Level FlightAware ADS-B
Thu 06:05:33 PM 36.8930 21.5220 140° Southeast 492 566 35,000  Level FlightAware ADS-B
Thu 06:06:18 PM 36.8150 21.6050 140° Southeast 491 565 35,000  Level FlightAware ADS-B
Thu 06:06:58 PM 36.7470 21.6760 140° Southeast 491 565 35,000  Level FlightAware ADS-B
Thu 06:07:38 PM 36.6770 21.7510 139° Southeast 488 562 35,000  Level FlightAware ADS-B
Thu 06:08:38 PM 36.5720 21.8610 140° Southeast 489 563 35,000  Level FlightAware ADS-B
Thu 06:09:18 PM 36.5020 21.9340 140° Southeast 492 566 35,000  Level FlightAware ADS-B
Thu 06:09:58 PM 36.4370 22.0030 139° Southeast 493 567 35,000  Level FlightAware ADS-B
Thu 06:10:43 PM 36.3600 22.0820 140° Southeast 494 568 35,000  Level FlightAware ADS-B
Thu 06:11:23 PM 36.2850 22.1610 140° Southeast 492 566 35,000  Level FlightAware ADS-B
Thu 06:12:03 PM 36.2140 22.2350 140° Southeast 494 568 35,000  Level FlightAware ADS-B
Thu 06:13:03 PM 36.1190 22.3360 139° Southeast 496 571 35,000  Level FlightAware ADS-B
Thu 06:13:43 PM 36.0600 22.3990 139° Southeast 496 571 35,000  Level FlightAware ADS-B
Thu 06:14:23 PM 36.0010 22.4620 139° Southeast 496 571 35,000  Level FlightAware ADS-B
Thu 06:15:03 PM 35.9430 22.5250 139° Southeast 496 571 35,000  Level FlightAware ADS-B
Thu 06:15:43 PM 35.8840 22.5890 139° Southeast 496 571 35,000  Level FlightAware ADS-B
Thu 06:16:33 PM 35.8100 22.6680 139° Southeast 496 571 35,000  Level FlightAware ADS-B
Thu 06:17:13 PM 35.7510 22.7310 139° Southeast 496 571 35,000  Level FlightAware ADS-B
Thu 06:17:53 PM 35.6920 22.7940 139° Southeast 496 571 35,000  Level FlightAware ADS-B
Thu 06:18:33 PM 35.6330 22.8570 139° Southeast 496 571 35,000  Level FlightAware ADS-B
Thu 06:19:13 PM 35.5750 22.9200 139° Southeast 496 571 35,000  Level FlightAware ADS-B
Thu 06:20:03 PM 35.5010 22.9980 139° Southeast 496 571 35,000  Level FlightAware ADS-B
Thu 06:20:43 PM 35.4420 23.0610 139° Southeast 496 571 35,000  Level FlightAware ADS-B
Thu 06:21:23 PM 35.3830 23.1240 139° Southeast 496 571 35,000  Level FlightAware ADS-B
Thu 06:22:03 PM 35.3240 23.1870 139° Southeast 496 571 35,000  Level FlightAware ADS-B
Thu 06:24:00 PM 35.2645 23.4655 105° East  Level Estimated
Thu 06:25:00 PM 35.2337 23.6081 105° East  Level Estimated
Thu 06:26:00 PM 35.2028 23.7506 105° East  Level Estimated
Thu 06:27:00 PM 35.1717 23.8930 105° East  Level Estimated
Thu 06:28:00 PM 35.1404 24.0354 105° East  Level Estimated
Thu 06:29:00 PM 35.1090 24.1776 105° East  Level Estimated
Thu 06:30:00 PM 35.0774 24.3197 105° East  Level Estimated
Thu 06:31:00 PM 35.0457 24.4616 105° East  Level Estimated
Thu 06:32:00 PM 35.0137 24.6035 105° East  Level Estimated
Thu 06:33:00 PM 34.9817 24.7453 105° East  Level Estimated
Thu 06:34:00 PM 34.9494 24.8869 105° East  Level Estimated
Thu 06:35:00 PM 34.9170 25.0285 106° East  Level Estimated
Thu 06:36:00 PM 34.8844 25.1699 106° East  Level Estimated
Thu 06:37:00 PM 34.8516 25.3112 106° East  Level Estimated
Thu 06:38:00 PM 34.8187 25.4524 106° East  Level Estimated
Thu 06:39:00 PM 34.7857 25.5935 106° East  Level Estimated
Thu 06:40:00 PM 34.7524 25.7345 106° East  Level Estimated
Thu 06:41:00 PM 34.7190 25.8753 106° East  Level Estimated
Thu 06:42:00 PM 34.6855 26.0161 106° East  Level Estimated
Thu 06:43:00 PM 34.6517 26.1567 106° East  Level Estimated
Thu 06:44:00 PM 34.6179 26.2972 106° East  Level Estimated
Thu 06:45:00 PM 34.5838 26.4376 106° East  Level Estimated
Thu 06:46:00 PM 34.5496 26.5779 106° East  Level Estimated
Thu 06:47:00 PM 34.5152 26.7181 107° East  Level Estimated
Thu 06:48:00 PM 34.4807 26.8581 107° East  Level Estimated
Thu 06:49:00 PM 34.4460 26.9981 107° East  Level Estimated
Thu 06:50:00 PM 34.4112 27.1379 107° East  Level Estimated
Thu 06:51:00 PM 34.3762 27.2776 107° East  Level Estimated
Thu 06:52:00 PM 34.3410 27.4172 107° East  Level Estimated
Thu 06:53:00 PM 34.3057 27.5567 107° East  Level Estimated
Thu 06:54:00 PM 34.2702 27.6960 107° East  Level Estimated
Thu 06:55:00 PM 34.2346 27.8353 107° East  Level Estimated
Thu 06:56:00 PM 34.1988 27.9744 107° East  Level Estimated
Thu 06:57:00 PM 34.1628 28.1134 107° East  Level Estimated
Thu 06:58:00 PM 34.1267 28.2523 107° East  Level Estimated
Thu 06:59:00 PM 34.0905 28.3910 107° East  Level Estimated
Thu 07:00:00 PM 34.0541 28.5297 108° East  Level Estimated
Thu 07:01:00 PM 34.0175 28.6682 108° East  Level Estimated
Thu 07:02:00 PM 33.9808 28.8066 108° East  Level Estimated
Thu 07:03:00 PM 33.9439 28.9449 108° East  Level Estimated
Thu 07:04:00 PM 33.9068 29.0831 108° East  Level Estimated
Thu 07:05:00 PM 33.8696 29.2211 108° East  Level Estimated
Thu 07:06:00 PM 33.8323 29.3591 108° East  Level Estimated
Thu 07:07:00 PM 33.7948 29.4969 108° East  Level Estimated
Thu 07:08:00 PM 33.7571 29.6346 108° East  Level Estimated
Thu 07:09:00 PM 33.7193 29.7721 108° East  Level Estimated
Thu 07:10:00 PM 33.6814 29.9095 108° East  Level Estimated
Thu 07:11:00 PM 33.6433 30.0469 108° East  Level Estimated
Thu 07:12:00 PM 33.6050 30.1841 108° East  Level Estimated
Thu 07:13:00 PM 33.5666 30.3211 109° East  Level Estimated
Thu 07:14:00 PM 33.5280 30.4581 109° East  Level Estimated
Thu 07:15:00 PM 33.4893 30.5949 109° East  Level Estimated
Thu 07:16:00 PM 33.4505 30.7316 109° East  Level Estimated
Thu 07:17:00 PM 33.4114 30.8682 109° East  Level Estimated
Thu 07:18:00 PM 33.3723 31.0047 109° East  Level Estimated
Thu 07:19:00 PM 33.3330 31.1410 109° East  Level Estimated
Thu 07:20:00 PM 33.2935 31.2773 109° East  Level Estimated
Thu 07:21:00 PM 33.2539 31.4133 109° East  Level Estimated
Thu 07:22:00 PM 33.2141 31.5493 109° East  Level Estimated
Thu 07:23:00 PM 33.1742 31.6852 109° East  Level Estimated
Thu 07:24:00 PM 33.1342 31.8209 109° East  Level Estimated
Thu 07:25:00 PM 33.0940 31.9565 109° East  Level Estimated
Thu 07:26:00 PM 33.0536 32.0920 110° East  Level Estimated
Thu 07:27:00 PM 33.0131 32.2273 110° East  Level Estimated
Thu 07:28:00 PM 32.9725 32.3625 110° East  Level Estimated
Thu 07:29:00 PM 32.9317 32.4976 110° East  Level Estimated
Thu 07:30:00 PM 32.8908 32.6326 110° East  Level Estimated
Thu 07:31:00 PM 32.8497 32.7675 110° East  Level Estimated
Thu 07:32:00 PM 32.8085 32.9022 110° East  Level Estimated
Thu 07:33:00 PM 32.7671 33.0368 110° East  Level Estimated
Thu 07:34:00 PM 32.7256 33.1713 110° East  Level Estimated
Thu 07:35:00 PM 32.6840 33.3056 110° East  Level Estimated
Thu 07:36:00 PM 32.6422 33.4399 110° East  Level Estimated
Thu 07:37:00 PM 32.6002 33.5740 110° East  Level Estimated
Thu 07:38:00 PM 32.5582 33.7079 110° East  Level Estimated
Thu 07:39:00 PM 32.5159 33.8418 110° East  Level Estimated
Thu 07:40:00 PM 32.4736 33.9755 111° Southeast  Level Estimated
Thu 07:41:00 PM 32.4311 34.1091 111° Southeast  Level Estimated
Thu 07:42:00 PM 32.3884 34.2426 111° Southeast  Level Estimated
Thu 07:43:00 PM 32.3456 34.3759 111° Southeast  Level Estimated
Thu 07:44:00 PM 32.3027 34.5091 111° Southeast  Level Estimated
Thu 07:45:00 PM 32.2596 34.6422 111° Southeast  Level Estimated
Thu 07:46:00 PM 32.2164 34.7752 111° Southeast  Level Estimated
Thu 07:47:00 PM 32.1731 34.9080 111° Southeast  Level Estimated
Thu 07:48:00 PM 32.1296 35.0407 111° Southeast  Level Estimated
Thu 07:49:00 PM 32.0860 35.1733 111° Southeast  Level Estimated
Thu 07:50:00 PM 32.0422 35.3058 111° Southeast  Level Estimated
Thu 07:51:00 PM 31.9983 35.4381 111° Southeast  Level Estimated
Thu 07:52:00 PM 31.9543 35.5703 111° Southeast  Level Estimated
Thu 07:53:00 PM 31.9101 35.7024 111° Southeast  Level Estimated
Thu 07:54:00 PM 31.8658 35.8344 112° Southeast  Level Estimated
Thu 07:55:00 PM 31.8214 35.9662 112° Southeast  Level Estimated
Thu 07:56:00 PM 31.7768 36.0979 112° Southeast  Level Estimated
Thu 07:57:00 PM 31.7321 36.2295 112° Southeast  Level Estimated
Thu 07:58:00 PM 31.6873 36.3609 112° Southeast  Level Estimated
Thu 07:59:00 PM 31.6423 36.4922 112° Southeast  Level Estimated
Thu 08:00:00 PM 31.5972 36.6234 112° Southeast  Level Estimated
Thu 08:01:00 PM 31.5519 36.7545 112° Southeast  Level Estimated
Thu 08:02:00 PM 31.5065 36.8854 112° Southeast  Level Estimated
Thu 08:03:00 PM 31.4610 37.0162 112° Southeast  Level Estimated
Thu 08:04:00 PM 31.4153 37.1469 112° Southeast  Level Estimated
Thu 08:05:00 PM 31.3696 37.2774 112° Southeast  Level Estimated
Thu 08:06:00 PM 31.3236 37.4079 112° Southeast  Level Estimated
Thu 08:07:00 PM 31.2776 37.5382 112° Southeast  Level Estimated
Thu 08:08:00 PM 31.2314 37.6683 113° Southeast  Level Estimated
Thu 08:09:00 PM 31.1851 37.7984 113° Southeast  Level Estimated
Thu 08:10:00 PM 31.1387 37.9283 113° Southeast  Level Estimated
Thu 08:11:00 PM 31.0921 38.0581 113° Southeast  Level Estimated
Thu 08:12:00 PM 31.0454 38.1877 113° Southeast  Level Estimated
Thu 08:13:00 PM 30.9986 38.3173 113° Southeast  Level Estimated
Thu 08:14:00 PM 30.9516 38.4467 113° Southeast  Level Estimated
Thu 08:15:00 PM 30.9045 38.5760 113° Southeast  Level Estimated
Thu 08:16:00 PM 30.8573 38.7051 113° Southeast  Level Estimated
Thu 08:17:00 PM 30.8099 38.8341 113° Southeast  Level Estimated
Thu 08:18:00 PM 30.7625 38.9630 113° Southeast  Level Estimated
Thu 08:19:00 PM 30.7149 39.0918 113° Southeast  Level Estimated
Thu 08:20:00 PM 30.6671 39.2204 113° Southeast  Level Estimated
Thu 08:21:00 PM 30.6193 39.3490 113° Southeast  Level Estimated
Thu 08:22:00 PM 30.5713 39.4773 113° Southeast  Level Estimated
Thu 08:23:00 PM 30.5232 39.6056 114° Southeast  Level Estimated
Thu 08:24:00 PM 30.4750 39.7337 114° Southeast  Level Estimated
Thu 08:25:00 PM 30.4266 39.8618 114° Southeast  Level Estimated
Thu 08:26:00 PM 30.3781 39.9896 114° Southeast  Level Estimated
Thu 08:27:00 PM 30.3295 40.1174 114° Southeast  Level Estimated
Thu 08:28:00 PM 30.2808 40.2450 114° Southeast  Level Estimated
Thu 08:29:00 PM 30.2319 40.3725 114° Southeast  Level Estimated
Thu 08:30:00 PM 30.1830 40.4999 114° Southeast  Level Estimated
Thu 08:31:00 PM 30.1339 40.6271 114° Southeast  Level Estimated
Thu 08:32:00 PM 30.0846 40.7542 114° Southeast  Level Estimated
Thu 08:33:00 PM 30.0353 40.8812 114° Southeast  Level Estimated
Thu 08:34:00 PM 29.9858 41.0081 114° Southeast  Level Estimated
Thu 08:35:00 PM 29.9362 41.1348 114° Southeast  Level Estimated
Thu 08:36:00 PM 29.8865 41.2615 114° Southeast  Level Estimated
Thu 08:37:00 PM 29.8367 41.3880 114° Southeast  Level Estimated
Thu 08:38:00 PM 29.7868 41.5143 114° Southeast  Level Estimated
Thu 08:39:00 PM 29.7367 41.6405 115° Southeast  Level Estimated
Thu 08:40:00 PM 29.6865 41.7667 115° Southeast  Level Estimated
Thu 08:41:00 PM 29.6362 41.8926 115° Southeast  Level Estimated
Thu 08:42:00 PM 29.5858 42.0185 115° Southeast  Level Estimated
Thu 08:43:00 PM 29.5352 42.1442 115° Southeast  Level Estimated
Thu 08:44:00 PM 29.4845 42.2698 115° Southeast  Level Estimated
Thu 08:45:00 PM 29.4338 42.3953 115° Southeast  Level Estimated
Thu 08:46:00 PM 29.3829 42.5206 115° Southeast  Level Estimated
Thu 08:47:00 PM 29.3318 42.6459 115° Southeast  Level Estimated
Thu 08:48:00 PM 29.2807 42.7710 115° Southeast  Level Estimated
Thu 08:49:00 PM 29.2295 42.8960 115° Southeast  Level Estimated
Thu 08:50:00 PM 29.1781 43.0208 115° Southeast  Level Estimated
Thu 08:51:00 PM 29.1266 43.1455 115° Southeast  Level Estimated
Thu 08:52:00 PM 29.0750 43.2701 115° Southeast  Level Estimated
Thu 08:53:00 PM 29.0233 43.3946 115° Southeast  Level Estimated
Thu 08:53:28 PM 26.0950 44.8310 116° Southeast 546 628 35,000  Level FlightAware ADS-B
Thu 08:54:00 PM 28.9715 43.5190 115° Southeast  Level Estimated
Thu 08:55:00 PM 28.9195 43.6432 116° Southeast  Level Estimated
Thu 08:55:38 PM 26.0290 45.1900 101° East 545 627 35,000  Level FlightAware ADS-B
Thu 08:58:00 PM 25.9978 45.5054 96° East  Level Estimated
Thu 08:59:00 PM 25.9844 45.6386 96° East  Level Estimated
Thu 09:00:00 PM 25.9708 45.7717 96° East  Level Estimated
Thu 09:01:00 PM 25.9572 45.9049 96° East  Level Estimated
Thu 09:02:00 PM 25.9434 46.0380 97° East  Level Estimated
Thu 09:03:00 PM 25.9295 46.1711 97° East  Level Estimated
Thu 09:04:00 PM 25.9155 46.3041 97° East  Level Estimated
Thu 09:05:00 PM 25.9014 46.4371 97° East  Level Estimated
Thu 09:06:00 PM 25.8871 46.5701 97° East  Level Estimated
Thu 09:07:00 PM 25.8727 46.7031 97° East  Level Estimated
Thu 09:08:00 PM 25.8582 46.8360 97° East  Level Estimated
Thu 09:09:00 PM 25.8436 46.9689 97° East  Level Estimated
Thu 09:10:00 PM 25.8288 47.1017 97° East  Level Estimated
Thu 09:11:00 PM 25.8140 47.2346 97° East  Level Estimated
Thu 09:12:00 PM 25.7990 47.3674 97° East  Level Estimated
Thu 09:13:00 PM 25.7839 47.5001 97° East  Level Estimated
Thu 09:14:00 PM 25.7687 47.6328 97° East  Level Estimated
Thu 09:15:00 PM 25.7533 47.7655 97° East  Level Estimated
Thu 09:16:00 PM 25.7379 47.8982 97° East  Level Estimated
Thu 09:16:43 PM 25.3460 48.6550 97° East 542 624 35,000  Level FlightAware ADS-B
Thu 09:19:00 PM 25.3398 48.9593 91° East  Level Estimated
Thu 09:20:00 PM 25.3369 49.0926 91° East  Level Estimated
Thu 09:20:48 PM 25.2610 49.3230 91° East 550 633 31,800  Level FlightAware ADS-B
Thu 09:22:03 PM 25.2810 49.5370 84° East 551 634 30,600 -626 Descending FlightAware ADS-B
Thu 09:22:43 PM 25.2870 49.6330 86° East 551 634 30,600  Level FlightAware ADS-B
Thu 09:23:28 PM 25.2930 49.7280 86° East 551 634 30,600  Level FlightAware ADS-B
Thu 09:24:03 PM 25.2990 49.8240 86° East 551 634 30,600  Level FlightAware ADS-B
Thu 09:24:53 PM 25.3070 49.9440 86° East 551 634 30,600  Level FlightAware ADS-B
Thu 09:25:33 PM 25.3130 50.0390 86° East 551 634 30,600  Level FlightAware ADS-B
Thu 09:26:13 PM 25.3190 50.1350 86° East 551 634 30,600  Level FlightAware ADS-B
Thu 09:26:53 PM 25.3250 50.2310 86° East 551 634 30,600  Level FlightAware ADS-B
Thu 09:27:43 PM 25.3330 50.3500 86° East 551 634 30,600  Level FlightAware ADS-B
Thu 09:28:23 PM 25.3390 50.4460 86° East 551 634 30,600  Level FlightAware ADS-B
Thu 09:29:03 PM 25.3450 50.5410 86° East 551 634 30,600 -9,000 Level FlightAware ADS-B
Thu 09:29:53 PM 25.2630 50.6810 123° Southeast 412 474 17,100 -7,062 Descending FlightAware ADS-B
Thu 09:31:13 PM 25.2650 50.8410 89° East 374 430 15,300 -1,200 Descending FlightAware ADS-B
Thu 09:31:53 PM 25.2670 50.9160 88° East 350 403 14,700 -1,050 Descending FlightAware ADS-B
Thu 09:32:33 PM 25.2670 50.9820 90° East 339 390 13,900 -1,341 Descending FlightAware ADS-B
Thu 09:33:18 PM 25.2680 51.0600 89° East 332 382 12,800 -1,271 Descending FlightAware ADS-B
Thu 09:33:58 PM 25.2690 51.1310 89° East 333 383 12,100 -1,050 Descending FlightAware ADS-B
Thu 09:34:38 PM 25.2700 51.1960 89° East 328 377 11,400 -1,050 Descending FlightAware ADS-B
Thu 09:35:18 PM 25.2700 51.2620 90° East 324 373 10,700 -1,020 Descending FlightAware ADS-B
Thu 09:36:18 PM 25.2310 51.3440 118° Southeast 293 337 9,700 -800 Descending FlightAware ADS-B
Thu 09:36:48 PM 25.2080 51.3780 127° Southeast 271 312 9,500 -700 Descending FlightAware ADS-B
Thu 09:37:18 PM 25.1850 51.4100 128° Southeast 252 290 9,000 -1,200 Descending FlightAware ADS-B
Thu 09:37:43 PM 25.1680 51.4350 127° Southeast 250 288 8,400 -1,309 Descending FlightAware ADS-B
Thu 09:38:13 PM 25.1460 51.4660 128° Southeast 242 278 7,800 -1,371 Descending FlightAware ADS-B
Thu 09:38:53 PM 25.1170 51.5020 132° Southeast 229 264 6,800 -1,457 Descending FlightAware ADS-B
Thu 09:39:23 PM 25.0920 51.5160 153° Southeast 218 251 6,100 -1,286 Descending FlightAware ADS-B
Thu 09:40:03 PM 25.0530 51.5340 157° South 214 246 5,300 -943 Descending FlightAware ADS-B
Thu 09:40:33 PM 25.0260 51.5460 158° South 196 226 5,000 -943 Descending FlightAware ADS-B
Thu 09:41:13 PM 25.0030 51.5730 133° Southeast 193 222 4,200 -1,114 Descending FlightAware ADS-B
Thu 09:41:43 PM 25.0140 51.6000 66° East 189 217 3,700 -686 Descending FlightAware ADS-B
Thu 09:42:23 PM 25.0420 51.6290 43° Northeast 193 222 3,400 -240 Descending FlightAware ADS-B
Thu 09:42:58 PM 25.0650 51.6470 35° Northeast 177 204 3,400  Level FlightAware ADS-B
Thu 09:43:18 PM 25.0810 51.6430 347° North 173 199 3,400 -360 Level FlightAware ADS-B
Thu 09:43:48 PM 25.1010 51.6350 340° North 173 199 3,100 -840 Descending FlightAware ADS-B
Thu 09:44:08 PM 25.1170 51.6290 341° North 172 198 2,700 -873 Descending FlightAware ADS-B
Thu 09:44:43 PM 25.1430 51.6170 337° Northwest 158 182 2,300 -831 Descending FlightAware ADS-B
Thu 09:45:13 PM 25.1630 51.6080 338° Northwest 128 147 1,800 -764 Descending FlightAware ADS-B
Thu 09:45:38 PM 25.1760 51.6030 341° North 121 139 1,600 -545 Descending FlightAware ADS-B
Thu 09:46:08 PM 25.1930 51.5950 337° Northwest 126 145 1,300 -686 Descending FlightAware ADS-B
Thu 09:46:13 PM 25.1960 51.5940 343° North 127 146 1,200 -1,200 Descending FlightAware ADS-B
Thu 09:48:00 PM 25.2611 51.5651 338° Northwest  Level Estimated
Thu 09:49:00 PM 25.2611 51.5651 216° Southwest  Level Estimated
Thu 09:50:00 PM 25.2611 51.5651 216° Southwest  Level Estimated
Thu 09:51:00 PM 25.2611 51.5651 216° Southwest  Level Estimated
Thu 09:52:00 PM 25.2611 51.5651 216° Southwest  Level Estimated
Thu 09:53:00 PM 25.2611 51.5651 216° Southwest  Level Estimated
Thu 09:54:00 PM 25.2611 51.5651 216° Southwest  Level Estimated
Thu 09:55:00 PM 25.2611 51.5651 216° Southwest  Level Estimated
Thu 09:56:00 PM 25.2611 51.5651 216° Southwest  Level Estimated
Thu 09:57:00 PM 25.2611 51.5651 216° Southwest  Level Estimated
Thu 09:58:00 PM 25.2611 51.5651 216° Southwest  Level Estimated
Thu 09:59:00 PM 25.2611 51.5651 216° Southwest  Level Estimated
Thu 10:00:00 PM 25.2611 51.5651 216° Southwest  Level Estimated
Thu 10:01:00 PM 25.2611 51.5651 216° Southwest  Level Estimated
Thu 10:02:00 PM 25.2611 51.5651 216° Southwest  Level Estimated
Thu 10:03:00 PM 25.2611 51.5651 216° Southwest  Level Estimated
Thu 10:04:00 PM 25.2611 51.5651 216° Southwest  Level Estimated
Thu 10:05:00 PM 25.2611 51.5651 216° Southwest  Level Estimated
Thu 10:06:00 PM 25.2611 51.5651 216° Southwest  Level Estimated
Thu 10:07:00 PM 25.2611 51.5651 216° Southwest  Level Estimated
Thu 10:08:00 PM 25.2611 51.5651 216° Southwest  Level Estimated
Thu 10:09:00 PM 25.2611 51.5651 216° Southwest  Level Estimated

Login

Don't have an account? Register now (free) for customized features, flight alerts, and more!